Terminal Aerodrome Forecast
Issued by NWS

Home | Current Version | Previous Version | Text Only | Print | Product List | Glossary On
Versions: 1 2 3 4 5 6 7 8 9 10 11 12 13 14 15 16 17 18 19
000
FTUS44 KLIX 252325
TAFMCB
TAF
KMCB 252325Z 2600/2624 18008KT P6SM FEW250
     FM260900 17007KT 6SM BR BKN060
     FM261100 16007KT 5SM BR BKN040
     FM261400 17009KT P6SM BKN020
     FM261600 18011KT P6SM BKN050
     FM261800 18012KT P6SM SCT090=

USA.gov is the U.S. government's official web portal to all federal, state and local government web resources and services.